createdAt,value
2023-08-18T00:02:42.711Z,17.584839
2023-08-18T00:06:07.794Z,17.544556
2023-08-18T00:09:32.972Z,17.564697
2023-08-18T00:12:58.148Z,17.615051
2023-08-18T00:16:23.340Z,17.615051
2023-08-18T00:19:48.524Z,17.59491
2023-08-18T00:23:13.679Z,17.514343
2023-08-18T00:26:38.853Z,17.484131
2023-08-18T00:30:04.018Z,17.403564
2023-08-18T00:33:29.193Z,17.443848
2023-08-18T00:36:54.386Z,17.463989
2023-08-18T00:40:19.530Z,17.524414
2023-08-18T00:43:44.723Z,17.514343
2023-08-18T00:47:09.904Z,17.403564
2023-08-18T00:50:35.084Z,17.403564
2023-08-18T00:54:00.278Z,17.413635
2023-08-18T00:57:25.424Z,17.463989
2023-08-18T01:00:50.645Z,17.413635
2023-08-18T01:04:15.811Z,17.383423
2023-08-18T01:07:41.009Z,17.373352
2023-08-18T01:11:06.193Z,17.081299
2023-08-18T01:14:31.341Z,17.030945
2023-08-18T01:17:56.552Z,16.879883
2023-08-18T01:21:21.678Z,16.84967
2023-08-18T01:24:46.837Z,16.889954
2023-08-18T01:28:12.051Z,16.910095
2023-08-18T01:31:37.218Z,16.960449
2023-08-18T01:35:02.384Z,16.930237
2023-08-18T01:38:27.548Z,16.940308
2023-08-18T01:41:52.725Z,16.889954
2023-08-18T01:45:17.903Z,16.829529
2023-08-18T01:48:43.057Z,16.829529
2023-08-18T01:52:08.235Z,16.809387
2023-08-18T01:55:33.404Z,16.819458
2023-08-18T01:58:58.619Z,16.748962
2023-08-18T02:02:23.835Z,16.708679
2023-08-18T02:05:48.983Z,16.708679
2023-08-18T02:09:14.146Z,16.658325
2023-08-18T02:12:39.339Z,16.638184
2023-08-18T02:16:04.542Z,16.628113
2023-08-18T02:19:29.695Z,16.638184
2023-08-18T02:22:54.909Z,16.638184
2023-08-18T02:26:20.077Z,16.607971
2023-08-18T02:29:45.250Z,16.567688
2023-08-18T02:33:10.484Z,16.567688
2023-08-18T02:36:35.643Z,16.426697
2023-08-18T02:40:00.782Z,16.426697
2023-08-18T02:43:25.953Z,16.456909
2023-08-18T02:46:51.135Z,16.416626
2023-08-18T02:50:16.312Z,16.446838
2023-08-18T02:53:41.525Z,16.406555
2023-08-18T02:57:06.692Z,16.426697
2023-08-18T03:00:31.861Z,16.416626
2023-08-18T03:03:57.077Z,16.386414
2023-08-18T03:07:22.229Z,16.34613
2023-08-18T03:10:47.428Z,16.33606
2023-08-18T03:14:12.589Z,16.325989
2023-08-18T03:17:37.773Z,16.154785
2023-08-18T03:21:02.954Z,16.013794
2023-08-18T03:24:28.120Z,15.943298
2023-08-18T03:27:53.340Z,15.892944
2023-08-18T03:31:18.502Z,15.943298
2023-08-18T03:34:43.663Z,16.013794
2023-08-18T03:38:08.841Z,16.09436
2023-08-18T03:41:34.002Z,16.144714
2023-08-18T03:44:59.208Z,16.114502
2023-08-18T03:48:24.346Z,16.013794
2023-08-18T03:51:49.521Z,15.943298
2023-08-18T03:55:14.690Z,15.872803
2023-08-18T03:58:40.019Z,15.83252
2023-08-18T04:02:05.209Z,15.862732
2023-08-18T04:05:30.364Z,15.96344
2023-08-18T04:08:55.572Z,16.023865
2023-08-18T04:12:20.792Z,16.114502
2023-08-18T04:15:46.000Z,16.205139
2023-08-18T04:19:11.328Z,16.245422
2023-08-18T04:22:36.521Z,16.114502
2023-08-18T04:26:01.720Z,16.144714
2023-08-18T04:29:26.931Z,16.154785
2023-08-18T04:32:52.116Z,16.235352
2023-08-18T04:36:17.299Z,16.376343
2023-08-18T04:39:42.445Z,16.416626
2023-08-18T04:43:07.621Z,16.497192
2023-08-18T04:46:32.837Z,16.577759
2023-08-18T04:49:57.997Z,16.628113
2023-08-18T04:53:23.203Z,16.698608
2023-08-18T04:56:48.537Z,16.728821
2023-08-18T05:00:13.566Z,16.789246
2023-08-18T05:03:38.869Z,16.819458
2023-08-18T05:07:05.278Z,16.809387
2023-08-18T05:10:29.200Z,16.789246
2023-08-18T05:13:54.375Z,16.829529
2023-08-18T05:17:19.586Z,16.889954
2023-08-18T05:20:44.756Z,17.000732
2023-08-18T05:24:09.946Z,17.030945
2023-08-18T05:27:35.147Z,17.141724
2023-08-18T05:31:00.338Z,17.252502
2023-08-18T05:34:25.495Z,17.403564
2023-08-18T05:37:50.680Z,17.514343
2023-08-18T05:41:15.989Z,17.584839
2023-08-18T05:44:41.156Z,17.655334
2023-08-18T05:48:06.300Z,17.715759
2023-08-18T05:51:31.452Z,17.806396
2023-08-18T05:54:56.622Z,17.917175
2023-08-18T05:58:21.813Z,17.967529
2023-08-18T06:01:46.975Z,18.09845
2023-08-18T06:05:12.138Z,18.289795
2023-08-18T06:08:37.331Z,18.410645
2023-08-18T06:12:02.470Z,18.501282
2023-08-18T06:15:27.669Z,18.632202
2023-08-18T06:18:52.903Z,18.73291
2023-08-18T06:22:18.064Z,18.823547
2023-08-18T06:25:43.216Z,18.914185
2023-08-18T06:29:08.403Z,19.004822
2023-08-18T06:32:33.685Z,19.095459
2023-08-18T06:35:58.842Z,19.176025
2023-08-18T06:39:23.967Z,19.216309
2023-08-18T06:42:49.138Z,19.276733
2023-08-18T06:46:14.385Z,19.306946
2023-08-18T06:49:39.512Z,19.286804
2023-08-18T06:53:04.715Z,19.317017
2023-08-18T06:56:29.858Z,19.3573
2023-08-18T06:59:55.054Z,19.327087
2023-08-18T07:03:20.268Z,19.367371
2023-08-18T07:06:45.410Z,19.407654
2023-08-18T07:10:10.599Z,19.437866
2023-08-18T07:13:35.768Z,19.437866
2023-08-18T07:17:00.945Z,19.427795
2023-08-18T07:20:26.121Z,19.437866
2023-08-18T07:23:51.338Z,19.498291
2023-08-18T07:27:16.561Z,19.578857
2023-08-18T07:30:42.012Z,19.60907
2023-08-18T07:34:07.207Z,19.649353
2023-08-18T07:37:52.449Z,19.689636
2023-08-18T07:40:57.534Z,19.709778
2023-08-18T07:44:22.737Z,19.951477
2023-08-18T07:47:47.918Z,20.11261
2023-08-18T07:51:13.051Z,20.475159
2023-08-18T07:54:38.225Z,20.656433
2023-08-18T07:58:03.428Z,20.86792
2023-08-18T08:01:28.716Z,21.008911
2023-08-18T08:04:53.869Z,21.210327
2023-08-18T08:08:19.015Z,21.321106
2023-08-18T08:11:44.198Z,21.311035
2023-08-18T08:15:09.375Z,21.37146
2023-08-18T08:18:34.618Z,21.351318
2023-08-18T08:21:59.798Z,21.401672
2023-08-18T08:25:24.999Z,21.50238
2023-08-18T08:28:50.182Z,21.472168
2023-08-18T08:32:15.358Z,21.562805
2023-08-18T08:35:40.591Z,21.593018
2023-08-18T08:39:05.728Z,21.593018
2023-08-18T08:42:31.089Z,21.582947
2023-08-18T08:45:56.141Z,21.542664
2023-08-18T08:49:26.073Z,21.50238
2023-08-18T08:52:46.554Z,21.50238
2023-08-18T08:56:11.720Z,21.49231
2023-08-18T08:59:36.893Z,21.49231
2023-08-18T09:03:02.161Z,21.50238
2023-08-18T09:06:27.299Z,21.522522
2023-08-18T09:09:52.554Z,21.643372
2023-08-18T09:13:17.743Z,21.693726
2023-08-18T09:16:42.987Z,21.713867
2023-08-18T09:23:33.396Z,21.713867
2023-08-18T09:26:58.646Z,21.723938
2023-08-18T09:30:23.863Z,21.713867
2023-08-18T09:33:49.047Z,21.713867
2023-08-18T09:37:14.246Z,21.864929
2023-08-18T09:40:39.465Z,22.026062
2023-08-18T09:44:04.689Z,21.99585
2023-08-18T09:47:29.884Z,22.066345
2023-08-18T09:50:55.106Z,22.116699
2023-08-18T09:54:20.287Z,22.207336
2023-08-18T09:57:45.457Z,22.358398
2023-08-18T10:01:10.710Z,22.640381
2023-08-18T10:04:35.846Z,22.88208
2023-08-18T10:08:01.022Z,23.00293
2023-08-18T10:11:29.396Z,23.043213
2023-08-18T10:14:51.372Z,23.194275
2023-08-18T10:18:16.558Z,23.305054
2023-08-18T10:21:41.709Z,23.355408
2023-08-18T10:25:06.894Z,23.526611
2023-08-18T10:28:32.075Z,23.607178
2023-08-18T10:31:57.303Z,23.677673
2023-08-18T10:35:22.622Z,23.788452
2023-08-18T10:38:47.719Z,23.899231
2023-08-18T10:42:12.926Z,24.020081
2023-08-18T10:45:38.125Z,24.060364
2023-08-18T10:49:03.299Z,24.120789
2023-08-18T10:52:28.806Z,24.201355
2023-08-18T10:55:53.683Z,24.221497
2023-08-18T10:59:18.870Z,24.281921
2023-08-18T11:02:44.049Z,24.372559
2023-08-18T11:06:09.259Z,24.3927
2023-08-18T11:09:34.479Z,24.493408
2023-08-18T11:13:00.006Z,24.654541
2023-08-18T11:16:24.898Z,24.725037
2023-08-18T11:19:50.091Z,24.725037
2023-08-18T11:23:15.294Z,24.825745
2023-08-18T11:26:40.521Z,24.89624
2023-08-18T11:30:05.787Z,25.027161
2023-08-18T11:33:30.963Z,25.087585
2023-08-18T11:36:56.190Z,25.137939
2023-08-18T11:40:21.441Z,25.137939
2023-08-18T11:43:46.695Z,25.208435
2023-08-18T11:47:11.897Z,25.238647
2023-08-18T11:50:37.095Z,25.389709
2023-08-18T11:54:02.310Z,25.39978
2023-08-18T11:57:27.541Z,25.389709
2023-08-18T12:00:52.819Z,25.349426
2023-08-18T12:04:17.999Z,25.329285
2023-08-18T12:07:43.226Z,25.319214
2023-08-18T12:11:08.458Z,25.319214
2023-08-18T12:14:33.705Z,25.39978
2023-08-18T12:17:59.010Z,25.359497
2023-08-18T12:21:24.100Z,25.278931
2023-08-18T12:24:49.285Z,25.26886
2023-08-18T12:28:14.475Z,25.248718
2023-08-18T12:31:39.684Z,25.329285
2023-08-18T12:35:04.914Z,25.349426
2023-08-18T12:38:30.080Z,25.379639
2023-08-18T12:41:55.285Z,25.349426
2023-08-18T12:45:20.504Z,25.500488
2023-08-18T12:48:45.728Z,25.460205
2023-08-18T12:52:10.963Z,25.26886
2023-08-18T12:55:36.147Z,25.349426
2023-08-18T12:59:01.353Z,25.500488
2023-08-18T13:02:26.566Z,25.500488
2023-08-18T13:05:51.772Z,25.460205
2023-08-18T13:09:17.017Z,25.450134
2023-08-18T13:12:42.211Z,25.39978
2023-08-18T13:16:07.422Z,25.429993
2023-08-18T13:19:32.631Z,25.419922
2023-08-18T13:23:02.471Z,25.500488
2023-08-18T13:26:23.029Z,25.540771
2023-08-18T13:29:48.523Z,25.450134
2023-08-18T13:33:13.449Z,25.389709
2023-08-18T13:36:38.565Z,25.419922
2023-08-18T13:40:03.771Z,25.550842
2023-08-18T13:43:28.994Z,25.621338
2023-08-18T13:46:54.155Z,25.671692
2023-08-18T13:50:19.354Z,25.701904
2023-08-18T13:53:44.555Z,25.732117
2023-08-18T13:57:09.751Z,25.732117
2023-08-18T14:00:34.975Z,25.732117
2023-08-18T14:04:00.151Z,25.792542
2023-08-18T14:07:25.363Z,25.701904
2023-08-18T14:10:50.545Z,25.701904
2023-08-18T14:14:15.774Z,25.671692
2023-08-18T14:17:41.034Z,25.581055
2023-08-18T14:21:06.183Z,25.570984
2023-08-18T14:24:31.415Z,25.621338
2023-08-18T14:27:56.611Z,25.621338
2023-08-18T14:31:21.932Z,25.601196
2023-08-18T14:34:47.050Z,25.52063
2023-08-18T14:38:12.218Z,25.39978
2023-08-18T14:41:37.444Z,25.299072
2023-08-18T14:45:02.636Z,25.198364
2023-08-18T14:48:29.956Z,25.14801
2023-08-18T14:51:53.095Z,25.248718
2023-08-18T14:55:18.287Z,25.329285
2023-08-18T14:58:43.518Z,25.359497
2023-08-18T15:02:08.718Z,25.389709
2023-08-18T15:05:33.942Z,25.39978
2023-08-18T15:08:59.189Z,25.299072
2023-08-18T15:48:03.569Z,24.906311
2023-08-18T15:51:28.826Z,24.845886
2023-08-18T15:54:54.078Z,24.825745
2023-08-18T15:58:19.315Z,24.825745
2023-08-18T16:01:44.538Z,24.775391
2023-08-18T16:05:09.811Z,24.775391
2023-08-18T16:08:35.020Z,24.725037
2023-08-18T16:12:00.227Z,24.654541
2023-08-18T16:15:27.961Z,24.624329
2023-08-18T16:18:50.588Z,24.624329
2023-08-18T16:22:15.826Z,24.604187
2023-08-18T16:25:41.024Z,24.573975
2023-08-18T16:29:06.224Z,24.533691
2023-08-18T16:32:31.447Z,24.523621
2023-08-18T16:35:56.664Z,24.473267
2023-08-18T16:39:21.880Z,24.453125
2023-08-18T16:42:47.059Z,24.3927
2023-08-18T16:46:12.258Z,24.342346
2023-08-18T16:49:37.451Z,24.322205
2023-08-18T16:53:02.667Z,24.281921
2023-08-18T16:56:27.901Z,24.241638
2023-08-18T16:59:53.071Z,24.211426
2023-08-18T17:03:18.259Z,24.201355
2023-08-18T17:06:43.451Z,24.161072
2023-08-18T17:10:08.670Z,24.151001
2023-08-18T17:13:33.881Z,24.100647
2023-08-18T17:16:59.067Z,24.090576
2023-08-18T17:20:24.265Z,24.020081
2023-08-18T17:23:49.454Z,23.969727
2023-08-18T17:27:14.667Z,23.939514
2023-08-18T17:30:39.947Z,23.909302
2023-08-18T17:34:05.098Z,23.838806
2023-08-18T17:37:30.491Z,23.778381
2023-08-18T17:40:55.504Z,23.728027
2023-08-18T17:44:20.737Z,23.677673
2023-08-18T17:47:45.969Z,23.647461
2023-08-18T17:51:11.112Z,23.566895
2023-08-18T17:54:36.318Z,23.526611
2023-08-18T17:58:01.521Z,23.466187
2023-08-18T18:01:26.773Z,23.425903
2023-08-18T18:04:51.978Z,23.375549
2023-08-18T18:08:17.189Z,23.355408
2023-08-18T18:11:42.404Z,23.315125
2023-08-18T18:15:07.604Z,23.38562
2023-08-18T18:18:32.882Z,23.466187
2023-08-18T18:21:58.052Z,23.415833
2023-08-18T18:25:23.205Z,23.315125
2023-08-18T18:28:48.409Z,23.2547
2023-08-18T18:32:13.599Z,23.224487
2023-08-18T18:35:38.801Z,23.153992
2023-08-18T18:39:04.018Z,23.103638
2023-08-18T18:42:29.196Z,23.013
2023-08-18T18:45:54.429Z,22.952576
2023-08-18T18:49:19.590Z,22.801514
2023-08-18T18:52:44.780Z,22.700806
2023-08-18T18:56:09.986Z,22.569885
2023-08-18T18:59:35.205Z,22.398682
2023-08-18T19:03:00.443Z,22.267761
2023-08-18T19:06:25.621Z,22.167053
2023-08-18T19:09:50.840Z,22.086487
2023-08-18T19:13:16.071Z,22.046204
2023-08-18T19:16:41.236Z,21.975708
2023-08-18T19:20:06.442Z,21.915283
2023-08-18T19:26:56.877Z,21.804504
2023-08-18T19:30:22.134Z,21.74408
2023-08-18T19:33:47.268Z,21.713867
2023-08-18T19:37:12.784Z,21.643372
2023-08-18T19:40:37.668Z,21.582947
2023-08-18T19:44:02.876Z,21.50238
2023-08-18T19:47:28.087Z,21.421814
2023-08-18T19:50:53.259Z,21.401672
2023-08-18T19:54:18.450Z,21.341248
2023-08-18T19:57:43.700Z,21.321106
2023-08-18T20:01:08.852Z,21.351318
2023-08-18T20:04:34.075Z,21.280823
2023-08-18T20:07:59.247Z,21.220398
2023-08-18T20:11:24.435Z,21.11969
2023-08-18T20:14:49.625Z,20.978699
2023-08-18T20:18:14.857Z,20.888062
2023-08-18T20:21:40.087Z,20.877991
2023-08-18T20:25:05.238Z,20.86792
2023-08-18T20:28:30.455Z,20.837708
2023-08-18T20:31:55.661Z,20.797424
2023-08-18T20:35:20.854Z,20.737
2023-08-18T20:38:46.064Z,20.686646
2023-08-18T20:42:11.216Z,20.636292
2023-08-18T20:45:36.427Z,20.61615
2023-08-18T20:49:01.618Z,20.61615
2023-08-18T20:52:26.832Z,20.565796
2023-08-18T20:55:52.028Z,20.545654
2023-08-18T20:59:17.188Z,20.515442
2023-08-18T21:02:42.463Z,20.475159
2023-08-18T21:06:07.588Z,20.384521
2023-08-18T21:09:32.771Z,20.384521
2023-08-18T21:12:57.992Z,20.293884
2023-08-18T21:16:23.178Z,20.283813
2023-08-18T21:19:48.335Z,20.203247
2023-08-18T21:23:13.517Z,20.213318
2023-08-18T21:26:38.703Z,20.24353
2023-08-18T21:30:03.929Z,20.283813
2023-08-18T21:33:29.084Z,20.263672
2023-08-18T21:36:54.284Z,20.24353
2023-08-18T21:40:19.460Z,20.213318
2023-08-18T21:43:44.647Z,20.173035
2023-08-18T21:47:09.868Z,20.11261
2023-08-18T21:50:35.041Z,20.021973
2023-08-18T21:54:00.197Z,19.951477
2023-08-18T21:57:25.389Z,19.86084
2023-08-18T22:00:50.580Z,19.780273
2023-08-18T22:04:15.791Z,19.689636
2023-08-18T22:07:40.944Z,19.689636
2023-08-18T22:11:06.145Z,19.709778
2023-08-18T22:14:31.330Z,19.689636
2023-08-18T22:17:57.638Z,19.729919
2023-08-18T22:21:21.718Z,19.760132
2023-08-18T22:24:46.877Z,19.760132
2023-08-18T22:28:13.474Z,19.760132
2023-08-18T22:31:37.266Z,19.709778
2023-08-18T22:35:02.445Z,19.689636
2023-08-18T22:38:27.594Z,19.649353
2023-08-18T22:41:52.759Z,19.508362
2023-08-18T22:45:17.961Z,19.498291
2023-08-18T22:48:43.131Z,19.468079
2023-08-18T22:52:08.323Z,19.458008
2023-08-18T22:55:33.544Z,19.407654
2023-08-18T22:58:58.680Z,19.437866
2023-08-18T23:02:23.903Z,19.468079
2023-08-18T23:05:49.058Z,19.498291
2023-08-18T23:09:14.245Z,19.458008
2023-08-18T23:12:39.475Z,19.407654
2023-08-18T23:16:04.639Z,19.367371
2023-08-18T23:19:29.818Z,19.387512
2023-08-18T23:22:55.020Z,19.3573
2023-08-18T23:26:20.200Z,19.286804
2023-08-18T23:29:45.427Z,19.286804
2023-08-18T23:33:10.583Z,19.276733
2023-08-18T23:36:35.816Z,19.276733
2023-08-18T23:40:00.979Z,19.276733
2023-08-18T23:43:26.172Z,19.135742
2023-08-18T23:46:51.396Z,19.055176
2023-08-18T23:50:16.584Z,18.924255
2023-08-18T23:53:41.767Z,18.883972
2023-08-18T23:57:06.961Z,18.914185
